Time;durP1;ratioP1;P1;durP2;ratioP2;P2;SDS_P1;SDS_P2;PMS_P1;PMS_P2;Temp;Humidity;BMP_temperature;BMP_pressure;BME280_temperature;BME280_humidity;BME280_pressure;Samples;Min_cycle;Max_cycle;Signal;HPM_P1;HPM_P2
2023/06/24 00:01:31;;;;;;;11.73;8.73;;;;;;;;;;5037785;28;20921;-77
2023/06/24 00:03:56;;;;;;;11.63;8.55;;;;;;;;;;5076560;28;20258;-75
2023/06/24 00:06:22;;;;;;;10.88;8.40;;;;;;;;;;5052935;28;20512;-76
2023/06/24 00:08:47;;;;;;;9.48;8.45;;;;;;;;;;5052313;28;20020;-71
2023/06/24 00:11:13;;;;;;;10.60;8.60;;;;;;;;;;5046923;28;20031;-72
2023/06/24 00:13:39;;;;;;;10.88;8.63;;;;;;;;;;5055815;28;20016;-72
2023/06/24 00:16:06;;;;;;;9.82;8.52;;;;;;;;;;5050591;28;20042;-74
2023/06/24 00:18:31;;;;;;;11.75;8.30;;;;;;;;;;5077915;28;20070;-76
2023/06/24 00:20:56;;;;;;;11.20;8.48;;;;;;;;;;5060881;28;20103;-76
2023/06/24 00:23:25;;;;;;;11.13;8.73;;;;;;;;;;5053539;28;20016;-70
2023/06/24 00:25:51;;;;;;;10.15;8.20;;;;;;;;;;5051778;28;20664;-75
2023/06/24 00:28:16;;;;;;;11.30;9.32;;;;;;;;;;5049986;28;20027;-77
2023/06/24 00:30:42;;;;;;;10.80;8.97;;;;;;;;;;5051766;28;20028;-74
2023/06/24 00:33:10;;;;;;;11.63;8.35;;;;;;;;;;5076925;28;20349;-77
2023/06/24 00:35:37;;;;;;;10.65;9.35;;;;;;;;;;5067266;28;20024;-78
2023/06/24 00:38:02;;;;;;;9.85;8.50;;;;;;;;;;5044907;28;20036;-74
2023/06/24 00:40:28;;;;;;;11.32;9.05;;;;;;;;;;5059127;28;20517;-78
2023/06/24 00:42:53;;;;;;;12.05;9.18;;;;;;;;;;5064869;28;20046;-76
2023/06/24 00:45:18;;;;;;;11.80;9.02;;;;;;;;;;5068661;28;20047;-76
2023/06/24 00:47:44;;;;;;;10.55;8.73;;;;;;;;;;5046474;28;20544;-74
2023/06/24 00:50:11;;;;;;;12.53;9.87;;;;;;;;;;5051089;28;20034;-75
2023/06/24 00:52:42;;;;;;;11.02;8.80;;;;;;;;;;5050677;28;20434;-76
2023/06/24 00:55:07;;;;;;;11.05;9.02;;;;;;;;;;5065883;28;20031;-76
2023/06/24 00:57:32;;;;;;;11.68;9.13;;;;;;;;;;5045490;28;20040;-69
2023/06/24 00:59:59;;;;;;;12.00;9.70;;;;;;;;;;5048457;28;20048;-76
2023/06/24 01:02:27;;;;;;;12.75;9.13;;;;;;;;;;5054790;28;20282;-72
2023/06/24 01:04:52;;;;;;;10.57;8.95;;;;;;;;;;5074768;28;20544;-74
2023/06/24 01:07:18;;;;;;;10.88;9.40;;;;;;;;;;5060238;28;20043;-72
2023/06/24 01:09:43;;;;;;;11.50;9.35;;;;;;;;;;5060959;28;20032;-77
2023/06/24 01:12:08;;;;;;;11.27;8.70;;;;;;;;;;5062509;28;20126;-76
2023/06/24 01:14:34;;;;;;;11.50;8.65;;;;;;;;;;5037206;28;20290;-75
2023/06/24 01:17:03;;;;;;;11.80;8.70;;;;;;;;;;5067159;28;20043;-72
2023/06/24 01:19:34;;;;;;;10.43;9.05;;;;;;;;;;5049665;28;20123;-71
2023/06/24 01:21:59;;;;;;;11.27;8.45;;;;;;;;;;5064103;28;20060;-74
2023/06/24 01:24:44;;;;;;;10.87;8.87;;;;;;;;;;5078373;28;20063;-72
2023/06/24 01:27:15;;;;;;;13.20;9.30;;;;;;;;;;5081088;28;21043;-76
2023/06/24 01:29:48;;;;;;;10.90;9.30;;;;;;;;;;5080164;28;20048;-71
2023/06/24 01:32:27;;;;;;;12.10;8.82;;;;;;;;;;5054132;28;20098;-78
2023/06/24 01:34:57;;;;;;;10.93;8.88;;;;;;;;;;5059128;28;20123;-74
2023/06/24 01:37:25;;;;;;;11.90;8.77;;;;;;;;;;5047545;28;20115;-77
2023/06/24 01:39:54;;;;;;;10.98;9.02;;;;;;;;;;5067216;28;20051;-73
2023/06/24 01:42:19;;;;;;;12.18;9.27;;;;;;;;;;5065132;28;20996;-76
2023/06/24 01:44:45;;;;;;;12.00;9.65;;;;;;;;;;5053353;28;20072;-75
2023/06/24 01:47:12;;;;;;;12.70;9.18;;;;;;;;;;5048285;28;20075;-76
2023/06/24 01:49:38;;;;;;;12.75;9.88;;;;;;;;;;5051190;28;20032;-76
2023/06/24 01:52:03;;;;;;;12.15;9.60;;;;;;;;;;5051905;28;20109;-78
2023/06/24 01:54:29;;;;;;;13.02;9.52;;;;;;;;;;5062069;28;20855;-70
2023/06/24 01:56:54;;;;;;;12.90;9.52;;;;;;;;;;5048490;28;20817;-74
2023/06/24 01:59:20;;;;;;;13.18;9.25;;;;;;;;;;5040861;28;20151;-75
2023/06/24 02:01:45;;;;;;;11.65;9.57;;;;;;;;;;5030592;28;20143;-70
2023/06/24 02:04:10;;;;;;;12.83;9.50;;;;;;;;;;5056770;28;20043;-74
2023/06/24 02:06:36;;;;;;;11.48;9.55;;;;;;;;;;5062649;28;20278;-78
2023/06/24 02:09:01;;;;;;;12.65;9.73;;;;;;;;;;5065952;28;20595;-69
2023/06/24 02:11:26;;;;;;;13.48;10.02;;;;;;;;;;5048890;28;20110;-75
2023/06/24 02:13:51;;;;;;;12.85;9.90;;;;;;;;;;5038319;28;20041;-77
2023/06/24 02:16:17;;;;;;;13.60;10.07;;;;;;;;;;5052389;28;20525;-72
2023/06/24 02:18:43;;;;;;;11.40;9.50;;;;;;;;;;5066834;28;20036;-74
2023/06/24 02:21:08;;;;;;;15.95;10.15;;;;;;;;;;5058762;28;20418;-73
2023/06/24 02:23:33;;;;;;;14.30;10.07;;;;;;;;;;5049688;28;20067;-77
2023/06/24 02:25:59;;;;;;;11.35;9.25;;;;;;;;;;5040916;28;20649;-77
2023/06/24 02:28:24;;;;;;;16.05;9.85;;;;;;;;;;5049620;28;20040;-75
2023/06/24 02:30:49;;;;;;;13.30;9.80;;;;;;;;;;5043613;28;20032;-76
2023/06/24 02:33:14;;;;;;;12.67;9.10;;;;;;;;;;5052511;28;20301;-73
2023/06/24 02:35:41;;;;;;;13.17;9.90;;;;;;;;;;5048555;28;21310;-75
2023/06/24 02:38:06;;;;;;;12.32;9.73;;;;;;;;;;5066269;28;20282;-77
2023/06/24 02:40:32;;;;;;;14.13;10.05;;;;;;;;;;5049320;28;20146;-71
2023/06/24 02:42:58;;;;;;;12.85;9.75;;;;;;;;;;5053651;28;20170;-78
2023/06/24 02:45:23;;;;;;;13.63;9.60;;;;;;;;;;5055318;28;20035;-69
2023/06/24 02:47:48;;;;;;;14.45;10.25;;;;;;;;;;5049429;28;20044;-76
2023/06/24 02:50:13;;;;;;;12.45;10.40;;;;;;;;;;5053625;28;20112;-76
2023/06/24 02:52:39;;;;;;;13.53;9.93;;;;;;;;;;5057156;28;20077;-76
2023/06/24 02:55:04;;;;;;;12.35;10.40;;;;;;;;;;5035852;28;20267;-76
2023/06/24 02:57:30;;;;;;;14.43;10.25;;;;;;;;;;5074820;28;20051;-70
2023/06/24 02:59:55;;;;;;;12.60;10.20;;;;;;;;;;5073840;28;20052;-67
2023/06/24 03:02:21;;;;;;;15.13;9.85;;;;;;;;;;5058848;28;20837;-76
2023/06/24 03:04:46;;;;;;;12.32;9.43;;;;;;;;;;5073313;28;20029;-76
2023/06/24 03:07:11;;;;;;;13.97;9.93;;;;;;;;;;5055052;28;20549;-75
2023/06/24 03:09:37;;;;;;;13.57;10.40;;;;;;;;;;5054124;28;20325;-73
2023/06/24 03:12:02;;;;;;;12.38;9.68;;;;;;;;;;5063605;28;20265;-74
2023/06/24 03:14:27;;;;;;;13.43;10.02;;;;;;;;;;5053966;28;20029;-78
2023/06/24 03:16:53;;;;;;;13.10;10.07;;;;;;;;;;5062773;28;20028;-72
2023/06/24 03:19:18;;;;;;;13.33;10.53;;;;;;;;;;5052877;28;20336;-73
2023/06/24 03:21:43;;;;;;;12.73;9.43;;;;;;;;;;5049404;28;20718;-72
2023/06/24 03:24:08;;;;;;;14.57;10.18;;;;;;;;;;5042851;28;20277;-74
2023/06/24 03:26:34;;;;;;;11.57;9.80;;;;;;;;;;5046700;28;20590;-78
2023/06/24 03:28:59;;;;;;;11.77;10.05;;;;;;;;;;5087164;28;20043;-72
2023/06/24 03:31:25;;;;;;;13.73;10.13;;;;;;;;;;5052123;28;20024;-67
2023/06/24 03:33:50;;;;;;;11.77;9.27;;;;;;;;;;5056552;28;20037;-75
2023/06/24 03:36:15;;;;;;;13.07;9.90;;;;;;;;;;5058999;28;20320;-76
2023/06/24 03:38:41;;;;;;;15.23;10.00;;;;;;;;;;5049353;28;20294;-70
2023/06/24 03:41:06;;;;;;;12.90;10.02;;;;;;;;;;5086007;28;20278;-75
2023/06/24 03:43:31;;;;;;;12.97;10.20;;;;;;;;;;5076279;28;20040;-75
2023/06/24 03:45:56;;;;;;;12.07;10.33;;;;;;;;;;5041444;28;20282;-75
2023/06/24 03:48:22;;;;;;;14.02;9.50;;;;;;;;;;5052412;28;20293;-76
2023/06/24 03:50:47;;;;;;;12.25;10.50;;;;;;;;;;5061581;28;20129;-75
2023/06/24 03:53:12;;;;;;;12.97;10.63;;;;;;;;;;5050334;28;20036;-73
2023/06/24 03:55:37;;;;;;;13.90;10.43;;;;;;;;;;5039009;28;20270;-71
2023/06/24 03:58:03;;;;;;;12.43;10.20;;;;;;;;;;5069709;28;20516;-74
2023/06/24 04:00:28;;;;;;;13.63;10.20;;;;;;;;;;5081800;28;20290;-79
2023/06/24 04:02:53;;;;;;;12.80;10.30;;;;;;;;;;5053608;28;20327;-73
2023/06/24 04:05:19;;;;;;;14.10;10.90;;;;;;;;;;5064860;23;20406;-66
2023/06/24 04:07:46;;;;;;;13.80;10.07;;;;;;;;;;5014373;28;21048;-68
2023/06/24 04:10:12;;;;;;;13.18;10.63;;;;;;;;;;5030456;28;20052;-67
2023/06/24 04:12:37;;;;;;;11.43;9.77;;;;;;;;;;5013625;28;20033;-70
2023/06/24 04:15:03;;;;;;;13.37;10.60;;;;;;;;;;5032943;28;20581;-68
2023/06/24 04:17:29;;;;;;;12.00;10.25;;;;;;;;;;5014567;28;20287;-64
2023/06/24 04:19:54;;;;;;;14.98;10.95;;;;;;;;;;5030919;28;20474;-67
2023/06/24 04:22:20;;;;;;;15.23;10.63;;;;;;;;;;5030245;28;20111;-66
2023/06/24 04:24:45;;;;;;;13.70;11.10;;;;;;;;;;5046724;23;20045;-70
2023/06/24 04:27:10;;;;;;;15.27;10.80;;;;;;;;;;5036021;28;20295;-79
2023/06/24 04:29:35;;;;;;;14.27;11.03;;;;;;;;;;5024316;28;20727;-80
2023/06/24 04:32:01;;;;;;;12.23;10.23;;;;;;;;;;5054955;28;20033;-73
2023/06/24 04:34:26;;;;;;;14.52;10.77;;;;;;;;;;5058018;28;20321;-76
2023/06/24 04:36:51;;;;;;;14.60;10.57;;;;;;;;;;5042527;28;20525;-75
2023/06/24 04:39:16;;;;;;;12.30;10.23;;;;;;;;;;5039186;28;20056;-76
2023/06/24 04:41:42;;;;;;;15.02;11.02;;;;;;;;;;5054150;28;20055;-70
2023/06/24 04:44:07;;;;;;;14.30;10.77;;;;;;;;;;5051273;28;20107;-74
2023/06/24 04:46:34;;;;;;;13.60;11.00;;;;;;;;;;5034374;28;20402;-76
2023/06/24 04:48:59;;;;;;;13.98;11.32;;;;;;;;;;5025159;28;20078;-73
2023/06/24 04:51:24;;;;;;;13.63;10.93;;;;;;;;;;5040626;28;20422;-74
2023/06/24 04:53:50;;;;;;;12.97;10.17;;;;;;;;;;5042055;28;20062;-71
2023/06/24 04:56:15;;;;;;;13.52;11.05;;;;;;;;;;5055595;28;20083;-72
2023/06/24 04:58:40;;;;;;;14.65;10.27;;;;;;;;;;5041344;28;20051;-79
2023/06/24 05:01:05;;;;;;;13.33;10.63;;;;;;;;;;5040217;28;20423;-74
2023/06/24 05:03:31;;;;;;;12.33;10.90;;;;;;;;;;5055303;28;20455;-70
2023/06/24 05:05:56;;;;;;;13.80;10.60;;;;;;;;;;5023944;28;20076;-69
2023/06/24 05:08:21;;;;;;;13.73;11.10;;;;;;;;;;5054246;28;20492;-68
2023/06/24 05:10:46;;;;;;;14.23;10.68;;;;;;;;;;5033108;28;20407;-71
2023/06/24 05:13:12;;;;;;;13.60;10.90;;;;;;;;;;5034053;28;20033;-71
2023/06/24 05:15:37;;;;;;;16.23;11.55;;;;;;;;;;5041412;28;20674;-75
2023/06/24 05:18:02;;;;;;;12.90;10.40;;;;;;;;;;5042800;28;20040;-68
2023/06/24 05:20:27;;;;;;;13.27;11.30;;;;;;;;;;5054527;28;20043;-68
2023/06/24 05:22:53;;;;;;;14.07;10.63;;;;;;;;;;5055123;28;20252;-68
2023/06/24 05:25:18;;;;;;;12.52;10.57;;;;;;;;;;5034927;28;20056;-72
2023/06/24 05:27:44;;;;;;;14.48;10.88;;;;;;;;;;5053786;28;20036;-75
2023/06/24 05:30:09;;;;;;;11.68;10.15;;;;;;;;;;5033386;28;20871;-73
2023/06/24 05:32:35;;;;;;;14.68;10.77;;;;;;;;;;5023558;28;20078;-76
2023/06/24 05:35:00;;;;;;;16.17;11.53;;;;;;;;;;5035807;28;20028;-71
2023/06/24 05:37:25;;;;;;;13.67;11.00;;;;;;;;;;5036163;28;20043;-72
2023/06/24 05:39:50;;;;;;;15.47;11.27;;;;;;;;;;5052249;28;20043;-67
2023/06/24 05:42:16;;;;;;;13.87;11.23;;;;;;;;;;5054882;28;20096;-76
2023/06/24 05:44:41;;;;;;;16.08;11.60;;;;;;;;;;5052119;28;20282;-74
2023/06/24 05:47:07;;;;;;;13.70;11.13;;;;;;;;;;5034292;28;20792;-75
2023/06/24 05:49:32;;;;;;;14.40;11.23;;;;;;;;;;5035400;28;20017;-76
2023/06/24 05:51:58;;;;;;;14.17;10.90;;;;;;;;;;5022756;28;20741;-75
2023/06/24 05:54:23;;;;;;;15.20;11.35;;;;;;;;;;5024146;28;20020;-81
2023/06/24 05:56:49;;;;;;;12.70;10.50;;;;;;;;;;5034582;28;20066;-82
2023/06/24 05:59:14;;;;;;;14.90;10.73;;;;;;;;;;5022142;28;20781;-74
2023/06/24 06:01:39;;;;;;;15.20;11.37;;;;;;;;;;5032521;28;20054;-72
2023/06/24 06:04:04;;;;;;;13.93;10.60;;;;;;;;;;5023455;28;20032;-78
2023/06/24 06:06:30;;;;;;;13.83;10.50;;;;;;;;;;5023238;28;20868;-72
2023/06/24 06:08:56;;;;;;;12.80;9.93;;;;;;;;;;5052927;28;20283;-75
2023/06/24 06:11:21;;;;;;;13.13;9.85;;;;;;;;;;5034299;28;20282;-82
2023/06/24 06:13:46;;;;;;;13.50;9.30;;;;;;;;;;5054791;28;20024;-72
2023/06/24 06:16:11;;;;;;;11.80;9.35;;;;;;;;;;5022822;28;20908;-74
2023/06/24 06:18:37;;;;;;;10.90;9.68;;;;;;;;;;5034644;28;20028;-71
2023/06/24 06:21:02;;;;;;;10.60;8.97;;;;;;;;;;5018290;28;20490;-79
2023/06/24 06:23:27;;;;;;;13.10;9.43;;;;;;;;;;5036647;28;20531;-73
2023/06/24 06:25:52;;;;;;;10.63;9.50;;;;;;;;;;5053012;28;20017;-71
2023/06/24 06:28:18;;;;;;;11.47;9.33;;;;;;;;;;5035493;28;20351;-71
2023/06/24 06:30:43;;;;;;;10.15;8.80;;;;;;;;;;5022078;28;20831;-70
2023/06/24 06:33:08;;;;;;;12.25;9.20;;;;;;;;;;5048821;28;20454;-70
2023/06/24 06:35:33;;;;;;;10.70;8.90;;;;;;;;;;5051840;28;21807;-69
2023/06/24 06:37:59;;;;;;;13.60;10.20;;;;;;;;;;5033510;28;20303;-76
2023/06/24 06:40:26;;;;;;;14.98;10.13;;;;;;;;;;5039339;28;20063;-70
2023/06/24 06:42:52;;;;;;;13.75;10.30;;;;;;;;;;5030212;28;20478;-68
2023/06/24 06:45:18;;;;;;;11.95;9.15;;;;;;;;;;5027668;28;20050;-67
2023/06/24 06:47:43;;;;;;;13.77;9.97;;;;;;;;;;5054239;28;20499;-71
2023/06/24 06:50:08;;;;;;;16.42;10.60;;;;;;;;;;5022267;28;20362;-70
2023/06/24 06:52:34;;;;;;;13.48;10.18;;;;;;;;;;5025020;28;20020;-70
2023/06/24 06:54:59;;;;;;;12.05;9.93;;;;;;;;;;5056303;28;20063;-72
2023/06/24 06:57:24;;;;;;;13.38;10.00;;;;;;;;;;5037197;28;20032;-73
2023/06/24 06:59:50;;;;;;;11.80;9.18;;;;;;;;;;5020756;28;20040;-71
2023/06/24 07:02:16;;;;;;;13.75;10.05;;;;;;;;;;5033518;28;20028;-73
2023/06/24 07:04:41;;;;;;;12.40;9.50;;;;;;;;;;5016532;28;20133;-73
2023/06/24 07:07:07;;;;;;;13.30;9.52;;;;;;;;;;5031768;28;20048;-75
2023/06/24 07:09:32;;;;;;;12.23;9.57;;;;;;;;;;5017470;28;20457;-73
2023/06/24 07:11:57;;;;;;;13.50;10.30;;;;;;;;;;5041717;28;20609;-77
2023/06/24 07:14:22;;;;;;;13.60;10.40;;;;;;;;;;5044234;28;20357;-70
2023/06/24 07:16:48;;;;;;;12.27;9.98;;;;;;;;;;5046178;28;20063;-74
2023/06/24 07:19:13;;;;;;;12.83;10.03;;;;;;;;;;5035720;28;20499;-77
2023/06/24 07:21:39;;;;;;;12.43;10.10;;;;;;;;;;5034967;28;20528;-78
2023/06/24 07:24:04;;;;;;;11.98;9.50;;;;;;;;;;5026723;28;20279;-72
2023/06/24 07:26:30;;;;;;;12.77;9.55;;;;;;;;;;5044721;28;20047;-75
2023/06/24 07:28:56;;;;;;;10.38;9.27;;;;;;;;;;5039257;28;20045;-72
2023/06/24 07:31:21;;;;;;;10.43;8.82;;;;;;;;;;5058096;28;20037;-77
2023/06/24 07:33:46;;;;;;;12.70;9.77;;;;;;;;;;5043442;28;20052;-78
2023/06/24 07:36:13;;;;;;;12.30;9.33;;;;;;;;;;5061957;28;20286;-80
2023/06/24 07:38:38;;;;;;;13.10;9.98;;;;;;;;;;5026189;28;20318;-80
2023/06/24 07:41:04;;;;;;;11.05;9.40;;;;;;;;;;5026901;28;20040;-74
2023/06/24 07:43:29;;;;;;;11.43;10.17;;;;;;;;;;5046108;28;20529;-72
2023/06/24 07:45:54;;;;;;;13.80;9.87;;;;;;;;;;5043977;28;20775;-73
2023/06/24 07:48:19;;;;;;;11.10;9.67;;;;;;;;;;5040094;28;20444;-73
2023/06/24 07:50:44;;;;;;;11.93;9.83;;;;;;;;;;5027996;28;20186;-69
2023/06/24 07:53:10;;;;;;;10.53;9.43;;;;;;;;;;5053258;28;20291;-66
2023/06/24 07:55:35;;;;;;;10.70;9.20;;;;;;;;;;5055308;28;20055;-67
2023/06/24 07:58:02;;;;;;;12.03;9.87;;;;;;;;;;5058058;28;20025;-68
2023/06/24 08:00:27;;;;;;;11.15;9.57;;;;;;;;;;5056685;28;20303;-70
2023/06/24 08:02:55;;;;;;;11.57;9.70;;;;;;;;;;5025889;28;20039;-65
2023/06/24 08:05:20;;;;;;;12.18;9.30;;;;;;;;;;5042441;28;20044;-71
2023/06/24 08:07:45;;;;;;;13.87;9.90;;;;;;;;;;5046753;28;20051;-69
2023/06/24 08:10:10;;;;;;;13.87;9.40;;;;;;;;;;5061224;28;20302;-68
2023/06/24 08:12:36;;;;;;;10.47;9.37;;;;;;;;;;5050594;28;20565;-71
2023/06/24 08:15:01;;;;;;;10.75;9.65;;;;;;;;;;5029943;28;20398;-71
2023/06/24 08:17:26;;;;;;;14.03;9.40;;;;;;;;;;5039498;28;20545;-67
2023/06/24 08:19:51;;;;;;;12.88;9.95;;;;;;;;;;5052214;28;20760;-71
2023/06/24 08:22:17;;;;;;;13.65;10.15;;;;;;;;;;5054761;28;20040;-69
2023/06/24 08:24:42;;;;;;;11.43;10.00;;;;;;;;;;5023299;28;20546;-69
2023/06/24 08:27:08;;;;;;;14.63;10.80;;;;;;;;;;5052824;28;20363;-67
2023/06/24 08:29:33;;;;;;;11.73;10.25;;;;;;;;;;5053861;28;20037;-70
2023/06/24 08:31:59;;;;;;;13.65;10.25;;;;;;;;;;5037220;28;20041;-69
2023/06/24 08:34:24;;;;;;;11.93;9.95;;;;;;;;;;5026650;28;20041;-71
2023/06/24 08:36:49;;;;;;;11.63;10.07;;;;;;;;;;5062716;28;20041;-73
2023/06/24 08:39:14;;;;;;;11.43;9.77;;;;;;;;;;5045711;28;20100;-74
2023/06/24 08:41:40;;;;;;;11.23;10.07;;;;;;;;;;5047603;28;20291;-70
2023/06/24 08:44:05;;;;;;;10.67;9.57;;;;;;;;;;5040852;28;20661;-66
2023/06/24 08:46:31;;;;;;;13.93;10.98;;;;;;;;;;5037408;28;20287;-68
2023/06/24 08:49:03;;;;;;;12.07;9.80;;;;;;;;;;5042420;28;20028;-73
2023/06/24 08:51:29;;;;;;;11.10;9.50;;;;;;;;;;5021923;28;20039;-69
2023/06/24 08:53:54;;;;;;;11.35;9.70;;;;;;;;;;5040855;28;20533;-71
2023/06/24 08:56:19;;;;;;;12.17;10.33;;;;;;;;;;5052132;28;20037;-66
2023/06/24 08:58:45;;;;;;;11.80;10.50;;;;;;;;;;5058249;28;20660;-68
2023/06/24 09:01:10;;;;;;;11.73;9.77;;;;;;;;;;5061239;28;20284;-67
2023/06/24 09:03:35;;;;;;;13.00;10.53;;;;;;;;;;5049029;28;20033;-70
2023/06/24 09:06:00;;;;;;;12.70;10.23;;;;;;;;;;5049375;28;20713;-70
2023/06/24 09:08:26;;;;;;;12.50;10.37;;;;;;;;;;5066839;28;20423;-68
2023/06/24 09:10:55;;;;;;;14.27;10.47;;;;;;;;;;5067254;28;20275;-71
2023/06/24 09:13:22;;;;;;;12.85;10.63;;;;;;;;;;5062341;28;20151;-69
2023/06/24 09:15:48;;;;;;;12.93;10.13;;;;;;;;;;5052541;28;20025;-71
2023/06/24 09:18:13;;;;;;;12.27;10.10;;;;;;;;;;5064495;28;20036;-70
2023/06/24 09:20:40;;;;;;;11.57;10.37;;;;;;;;;;5053668;28;20346;-72
2023/06/24 09:23:06;;;;;;;12.75;10.57;;;;;;;;;;5049335;28;20292;-63
2023/06/24 09:25:31;;;;;;;13.60;10.57;;;;;;;;;;5034049;28;20041;-67
2023/06/24 09:28:03;;;;;;;13.87;10.90;;;;;;;;;;5064190;28;20028;-67
2023/06/24 09:30:28;;;;;;;13.45;10.07;;;;;;;;;;5067800;28;20048;-65
2023/06/24 09:32:55;;;;;;;13.80;10.70;;;;;;;;;;5022039;28;20026;-63
2023/06/24 09:35:21;;;;;;;12.18;10.52;;;;;;;;;;5033871;28;20303;-67
2023/06/24 09:37:59;;;;;;;12.90;9.90;;;;;;;;;;5058230;28;20487;-68
2023/06/24 09:40:24;;;;;;;11.50;9.70;;;;;;;;;;5063396;28;20048;-69
2023/06/24 09:42:53;;;;;;;10.30;9.20;;;;;;;;;;5058689;28;20151;-68
2023/06/24 09:45:21;;;;;;;12.40;9.98;;;;;;;;;;5028476;28;20041;-67
2023/06/24 09:47:50;;;;;;;13.35;10.20;;;;;;;;;;5045561;28;20039;-69
2023/06/24 09:50:16;;;;;;;12.38;10.93;;;;;;;;;;5023706;28;20112;-68
2023/06/24 09:52:42;;;;;;;11.45;10.15;;;;;;;;;;5028096;28;20025;-67
2023/06/24 09:55:09;;;;;;;11.77;9.65;;;;;;;;;;5029104;28;20120;-69
2023/06/24 09:57:37;;;;;;;12.05;10.10;;;;;;;;;;5041158;28;20472;-70
2023/06/24 10:00:03;;;;;;;11.88;9.70;;;;;;;;;;5034521;28;20695;-66
2023/06/24 10:04:56;;;;;;;12.25;9.65;;;;;;;;;;5062265;27;20051;-69
2023/06/24 10:07:22;;;;;;;11.40;9.63;;;;;;;;;;5066309;28;20226;-69
2023/06/24 10:09:48;;;;;;;11.85;9.50;;;;;;;;;;5050980;28;20394;-68
2023/06/24 10:12:21;;;;;;;12.32;9.85;;;;;;;;;;5045031;28;20427;-67
2023/06/24 10:14:46;;;;;;;11.10;9.40;;;;;;;;;;5057709;28;20040;-70
2023/06/24 10:17:11;;;;;;;12.30;9.55;;;;;;;;;;5057372;28;20063;-72
2023/06/24 10:19:37;;;;;;;12.48;9.90;;;;;;;;;;5063179;28;20108;-73
2023/06/24 10:22:02;;;;;;;12.75;9.75;;;;;;;;;;5063257;22;20076;-69
2023/06/24 10:24:31;;;;;;;11.38;9.82;;;;;;;;;;5028716;28;20033;-75
2023/06/24 10:27:03;;;;;;;12.27;10.13;;;;;;;;;;5042003;28;20497;-73
2023/06/24 10:29:35;;;;;;;12.15;9.75;;;;;;;;;;5028100;28;20271;-72
2023/06/24 10:32:02;;;;;;;10.60;9.48;;;;;;;;;;5021032;28;20037;-71
2023/06/24 10:34:27;;;;;;;10.65;9.50;;;;;;;;;;5023418;28;20481;-71
2023/06/24 10:36:58;;;;;;;11.60;9.67;;;;;;;;;;5031916;28;20034;-67
2023/06/24 10:39:36;;;;;;;11.65;9.02;;;;;;;;;;5034266;28;20304;-70
2023/06/24 10:42:20;;;;;;;11.02;9.18;;;;;;;;;;5043070;28;20048;-75
2023/06/24 10:44:48;;;;;;;9.90;8.90;;;;;;;;;;5047283;28;20103;-68
2023/06/24 10:47:13;;;;;;;10.55;8.93;;;;;;;;;;5045479;28;20339;-77
2023/06/24 10:49:39;;;;;;;9.77;8.50;;;;;;;;;;5021461;28;20114;-70
2023/06/24 10:52:04;;;;;;;9.47;8.50;;;;;;;;;;5031031;28;20340;-75
2023/06/24 10:54:29;;;;;;;9.55;8.55;;;;;;;;;;5012487;28;20041;-71
2023/06/24 10:56:55;;;;;;;9.53;8.30;;;;;;;;;;5030822;28;20030;-70
2023/06/24 10:59:20;;;;;;;9.32;8.02;;;;;;;;;;5019988;28;20320;-68
2023/06/24 11:01:55;;;;;;;8.77;7.60;;;;;;;;;;5019539;28;20072;-76
2023/06/24 11:04:20;;;;;;;8.80;7.57;;;;;;;;;;5018749;28;20045;-68
2023/06/24 11:07:01;;;;;;;10.40;7.60;;;;;;;;;;5039763;28;20261;-70
2023/06/24 11:09:26;;;;;;;8.80;7.25;;;;;;;;;;5011309;28;20044;-72
2023/06/24 11:11:52;;;;;;;9.43;7.57;;;;;;;;;;5048370;28;20415;-69
2023/06/24 11:14:17;;;;;;;9.98;7.95;;;;;;;;;;5040349;28;20112;-73
2023/06/24 11:16:42;;;;;;;9.50;7.32;;;;;;;;;;5032814;28;20037;-70
2023/06/24 11:19:08;;;;;;;10.07;7.75;;;;;;;;;;5028791;28;20041;-74
2023/06/24 11:21:33;;;;;;;8.82;7.03;;;;;;;;;;5002943;28;20056;-68
2023/06/24 11:24:02;;;;;;;9.25;7.68;;;;;;;;;;5020758;28;20037;-67
2023/06/24 11:26:27;;;;;;;9.45;7.50;;;;;;;;;;5037724;22;20049;-67
2023/06/24 11:28:52;;;;;;;8.83;6.97;;;;;;;;;;5034765;28;20048;-68
2023/06/24 11:31:18;;;;;;;8.23;7.30;;;;;;;;;;5032745;28;20613;-66
2023/06/24 11:33:48;;;;;;;9.43;7.47;;;;;;;;;;5037845;28;20048;-73
2023/06/24 11:36:16;;;;;;;9.20;7.78;;;;;;;;;;5049482;28;20038;-70
2023/06/24 11:38:41;;;;;;;7.75;6.63;;;;;;;;;;5033331;28;20155;-68
2023/06/24 11:41:07;;;;;;;8.48;7.13;;;;;;;;;;5033624;28;20055;-66
2023/06/24 11:43:33;;;;;;;7.57;6.77;;;;;;;;;;5052375;28;20316;-61
2023/06/24 11:45:58;;;;;;;7.78;6.78;;;;;;;;;;5053663;22;20696;-69
2023/06/24 11:48:27;;;;;;;8.32;7.03;;;;;;;;;;5045015;28;20743;-65
2023/06/24 11:50:55;;;;;;;7.75;6.50;;;;;;;;;;5056669;28;20036;-68
2023/06/24 11:53:45;;;;;;;8.50;7.18;;;;;;;;;;5055599;28;20048;-66
2023/06/24 11:56:10;;;;;;;;;;;;;;;;;;5054271;28;20206;-66
2023/06/24 11:58:35;;;;;;;8.57;6.80;;;;;;;;;;5035883;28;22282;-64
2023/06/24 12:01:01;;;;;;;8.43;7.27;;;;;;;;;;5045516;28;20049;-64
2023/06/24 12:03:27;;;;;;;7.80;6.68;;;;;;;;;;5046641;28;20292;-65
2023/06/24 12:05:52;;;;;;;8.45;6.78;;;;;;;;;;5047520;28;20024;-64
2023/06/24 12:08:18;;;;;;;8.60;6.57;;;;;;;;;;5046138;28;20517;-65
2023/06/24 12:10:43;;;;;;;7.57;6.43;;;;;;;;;;5051193;28;20036;-66
2023/06/24 12:13:08;;;;;;;7.80;6.77;;;;;;;;;;5055047;28;20792;-65
2023/06/24 12:15:33;;;;;;;7.63;6.25;;;;;;;;;;5055133;28;20294;-63
2023/06/24 12:18:00;;;;;;;8.25;6.90;;;;;;;;;;5054089;28;20174;-67
2023/06/24 12:20:25;;;;;;;7.55;6.30;;;;;;;;;;5054203;28;20049;-65
2023/06/24 12:22:50;;;;;;;8.57;7.20;;;;;;;;;;5054348;28;20032;-65
2023/06/24 12:25:16;;;;;;;6.83;6.13;;;;;;;;;;5041202;28;20040;-68
2023/06/24 12:27:41;;;;;;;9.15;7.00;;;;;;;;;;5057888;28;20287;-68
2023/06/24 12:30:07;;;;;;;7.75;6.63;;;;;;;;;;5053784;28;20622;-69
2023/06/24 12:32:32;;;;;;;7.68;6.68;;;;;;;;;;5067245;28;20029;-69
2023/06/24 12:34:57;;;;;;;7.10;6.33;;;;;;;;;;5061427;28;20044;-69
2023/06/24 12:37:23;;;;;;;12.37;7.03;;;;;;;;;;5055509;28;20857;-71
2023/06/24 12:39:50;;;;;;;8.55;6.60;;;;;;;;;;5061296;28;20329;-69
2023/06/24 12:42:16;;;;;;;7.72;6.80;;;;;;;;;;5062415;28;20105;-65
2023/06/24 12:44:41;;;;;;;7.90;6.80;;;;;;;;;;5038172;28;20025;-66
2023/06/24 12:47:06;;;;;;;8.02;6.47;;;;;;;;;;5063412;28;20459;-70
2023/06/24 12:49:32;;;;;;;8.30;7.28;;;;;;;;;;5045373;28;20029;-70
2023/06/24 12:51:57;;;;;;;7.37;6.57;;;;;;;;;;5052723;28;20060;-68
2023/06/24 12:54:22;;;;;;;7.60;6.68;;;;;;;;;;5054839;28;20271;-68
2023/06/24 12:56:47;;;;;;;7.80;6.30;;;;;;;;;;5039758;28;20467;-66
2023/06/24 12:59:12;;;;;;;7.50;6.40;;;;;;;;;;5052378;28;20484;-69
2023/06/24 13:01:38;;;;;;;7.47;6.40;;;;;;;;;;5067013;28;20522;-69
2023/06/24 13:04:03;;;;;;;7.50;6.23;;;;;;;;;;5067851;28;20310;-69
2023/06/24 13:06:28;;;;;;;7.80;6.43;;;;;;;;;;5059314;28;20028;-67
2023/06/24 13:08:53;;;;;;;8.17;6.40;;;;;;;;;;5045397;28;20037;-65
2023/06/24 13:11:19;;;;;;;7.40;6.47;;;;;;;;;;5048087;28;20043;-67
2023/06/24 13:13:44;;;;;;;7.23;6.23;;;;;;;;;;5062796;28;20568;-65
2023/06/24 13:16:09;;;;;;;7.50;6.40;;;;;;;;;;5049652;28;20302;-65
2023/06/24 13:18:34;;;;;;;7.20;6.30;;;;;;;;;;5075934;28;20759;-64
2023/06/24 13:21:00;;;;;;;6.70;6.00;;;;;;;;;;5042142;28;20294;-61
2023/06/24 13:23:25;;;;;;;7.43;6.63;;;;;;;;;;5051420;28;20049;-67
2023/06/24 13:25:50;;;;;;;6.97;6.23;;;;;;;;;;5036921;28;20036;-64
2023/06/24 13:28:17;;;;;;;7.65;5.90;;;;;;;;;;5065706;28;20047;-64
2023/06/24 13:30:43;;;;;;;7.85;6.60;;;;;;;;;;5056713;28;20237;-67
2023/06/24 13:33:08;;;;;;;6.88;6.18;;;;;;;;;;5061525;28;21704;-65
2023/06/24 13:35:34;;;;;;;6.93;6.17;;;;;;;;;;5061669;28;20612;-66
2023/06/24 13:38:00;;;;;;;7.13;6.38;;;;;;;;;;5044494;28;20298;-70
2023/06/24 13:40:25;;;;;;;7.10;6.40;;;;;;;;;;5062982;28;20055;-65
2023/06/24 13:42:52;;;;;;;7.28;6.53;;;;;;;;;;5064068;28;20044;-65
2023/06/24 13:48:20;;;;;;;7.68;6.05;;;;;;;;;;5052781;23;20098;-67
2023/06/24 13:50:50;;;;;;;7.13;5.55;;;;;;;;;;5009329;28;20036;-67
2023/06/24 13:53:17;;;;;;;8.35;5.95;;;;;;;;;;5038898;22;20435;-67
2023/06/24 13:55:42;;;;;;;7.50;6.25;;;;;;;;;;5060336;23;20048;-71
2023/06/24 13:58:08;;;;;;;6.67;5.73;;;;;;;;;;5042442;28;20044;-78
2023/06/24 14:00:33;;;;;;;8.38;6.15;;;;;;;;;;5025172;28;20132;-80
2023/06/24 14:02:58;;;;;;;7.77;6.30;;;;;;;;;;5038664;28;20033;-81
2023/06/24 14:08:07;;;;;;;10.90;6.43;;;;;;;;;;5066127;23;19923;-61
2023/06/24 14:10:39;;;;;;;11.93;6.32;;;;;;;;;;5065171;27;20073;-61
2023/06/24 14:13:09;;;;;;;9.55;5.93;;;;;;;;;;5075985;28;20035;-61
2023/06/24 14:15:38;;;;;;;10.18;5.85;;;;;;;;;;5081167;27;20031;-60
2023/06/24 14:18:07;;;;;;;10.60;6.05;;;;;;;;;;5072693;27;20569;-61
2023/06/24 14:20:40;;;;;;;8.27;5.67;;;;;;;;;;5068922;27;20536;-58
2023/06/24 14:23:13;;;;;;;9.68;5.18;;;;;;;;;;5058335;28;20131;-59
2023/06/24 14:25:41;;;;;;;10.85;5.50;;;;;;;;;;5077095;22;20177;-59
2023/06/24 14:28:10;;;;;;;7.97;5.45;;;;;;;;;;5071231;27;20032;-58
2023/06/24 14:30:42;;;;;;;9.90;5.38;;;;;;;;;;5058236;28;20047;-58